Tuesday, November 21, 2017, 10:47 AM EST
Back to Local

KGNR, Greenville

Location: Greenville, ME, United States Lat: 45.467
Local Time: 10:47 AM EST (15:47 GMT) Lon: -69.583
Time Zone: US/Eastern Elev: 1400 ft

Show me the last for .
Show Decoded

2017-11-20 20:56 METAR KGNR 210156Z AUTO 30015G28KT M12/M16 A2983 RMK AO1 PK WND 31028/0151
                 SLP129 T11171161 =
2017-11-20 19:56 METAR KGNR 210056Z AUTO 30011G25KT 240V320 M12/M17 A2982 RMK AO1 PK WND
                 33031/0035 SLP126 T11171167 =
2017-11-20 18:56 METAR KGNR 202356Z AUTO 30010G22KT M11/M17 A2979 RMK AO1 PK WND 31035/2325
                 SLP117 T11111167 11067 21111 53032 =
2017-11-20 17:56 METAR KGNR 202256Z AUTO 30016G26KT M10/M15 A2975 RMK AO1 PK WND 31033/2241
                 SLP101 T11001150 =
2017-11-20 16:56 METAR KGNR 202156Z AUTO 30014G24KT M09/M13 A2972 RMK AO1 PK WND 32030/2119
                 SLP092 T10941133 =
2017-11-20 15:56 METAR KGNR 202056Z AUTO 30011G21KT 270V330 M09/M13 A2970 RMK AO1 PK WND
                 31029/2017 SLP081 T10941128 53022 =
2017-11-20 14:56 METAR KGNR 201956Z AUTO 30012G24KT M09/M13 A2967 RMK AO1 PK WND 31028/1857
                 SLP071 T10891133 =
2017-11-20 13:56 METAR KGNR 201856Z AUTO 29012G26KT M08/M15 A2964 RMK AO1 PK WND 29029/1839
                 SLP060 T10781150 =
2017-11-20 12:56 METAR KGNR 201756Z AUTO 31014G27KT M07/M11 A2963 RMK AO1 PK WND 31027/1751
                 SLP055 T10671111 11050 21072 53009 =
2017-11-20 11:56 METAR KGNR 201656Z AUTO 28008G21KT 240V320 M07/M13 A2961 RMK AO1 SLP050
                 T10671133 =
2017-11-20 10:56 METAR KGNR 201556Z AUTO 29010G21KT 220V330 M06/M13 A2961 RMK AO1 SLP049
                 T10611128 =

Support USWX by starting your Amazon purchase here.